sensor_id;sensor_type;location;lat;lon;timestamp;noise_LAeq;noise_LA_min;noise_LA_max;noise_LA01;noise_LA95
72805;Laerm;60920;48.748;19.142;2024-03-22T00:00:15;29.14;27.76;30.26;;
72805;Laerm;60920;48.748;19.142;2024-03-22T00:02:40;29.12;27.88;30.24;;
72805;Laerm;60920;48.748;19.142;2024-03-22T00:05:06;29.11;27.82;30.47;;
72805;Laerm;60920;48.748;19.142;2024-03-22T00:07:31;29.09;27.65;30.17;;
72805;Laerm;60920;48.748;19.142;2024-03-22T00:09:56;29.08;27.64;30.26;;
72805;Laerm;60920;48.748;19.142;2024-03-22T00:12:22;29.07;27.38;30.32;;
72805;Laerm;60920;48.748;19.142;2024-03-22T00:14:47;29.07;27.78;30.23;;
72805;Laerm;60920;48.748;19.142;2024-03-22T00:17:12;29.05;27.85;30.30;;
72805;Laerm;60920;48.748;19.142;2024-03-22T00:19:38;29.02;27.84;30.17;;
72805;Laerm;60920;48.748;19.142;2024-03-22T00:22:03;29.01;27.62;30.15;;
72805;Laerm;60920;48.748;19.142;2024-03-22T00:24:28;29.01;27.73;30.14;;
72805;Laerm;60920;48.748;19.142;2024-03-22T00:26:54;28.98;27.58;30.26;;
72805;Laerm;60920;48.748;19.142;2024-03-22T00:29:19;28.97;27.70;30.15;;
72805;Laerm;60920;48.748;19.142;2024-03-22T00:31:44;28.98;27.55;30.08;;
72805;Laerm;60920;48.748;19.142;2024-03-22T00:34:09;28.98;27.60;30.23;;
72805;Laerm;60920;48.748;19.142;2024-03-22T00:36:35;28.98;27.77;30.20;;
72805;Laerm;60920;48.748;19.142;2024-03-22T00:39:00;28.98;27.80;30.08;;
72805;Laerm;60920;48.748;19.142;2024-03-22T00:41:25;28.99;27.67;30.01;;
72805;Laerm;60920;48.748;19.142;2024-03-22T00:43:51;28.97;27.77;30.39;;
72805;Laerm;60920;48.748;19.142;2024-03-22T00:46:16;28.97;27.16;30.11;;
72805;Laerm;60920;48.748;19.142;2024-03-22T00:48:41;28.98;27.65;30.10;;
72805;Laerm;60920;48.748;19.142;2024-03-22T00:51:06;28.97;27.54;30.22;;
72805;Laerm;60920;48.748;19.142;2024-03-22T00:53:32;28.98;27.77;30.18;;
72805;Laerm;60920;48.748;19.142;2024-03-22T00:55:57;28.97;27.79;30.29;;
72805;Laerm;60920;48.748;19.142;2024-03-22T00:58:25;28.96;27.67;30.28;;
72805;Laerm;60920;48.748;19.142;2024-03-22T01:00:50;28.95;27.69;30.19;;
72805;Laerm;60920;48.748;19.142;2024-03-22T01:03:15;28.95;27.82;30.15;;
72805;Laerm;60920;48.748;19.142;2024-03-22T01:05:40;28.95;27.83;30.12;;
72805;Laerm;60920;48.748;19.142;2024-03-22T01:08:07;28.94;27.72;30.10;;
72805;Laerm;60920;48.748;19.142;2024-03-22T01:10:32;28.94;27.31;30.04;;
72805;Laerm;60920;48.748;19.142;2024-03-22T01:12:58;28.93;27.71;30.19;;
72805;Laerm;60920;48.748;19.142;2024-03-22T01:15:23;28.92;27.62;30.03;;
72805;Laerm;60920;48.748;19.142;2024-03-22T01:17:48;28.92;27.58;30.14;;
72805;Laerm;60920;48.748;19.142;2024-03-22T01:20:14;28.93;27.71;30.09;;
72805;Laerm;60920;48.748;19.142;2024-03-22T01:22:39;28.93;27.55;30.46;;
72805;Laerm;60920;48.748;19.142;2024-03-22T01:25:05;28.92;27.65;30.09;;
72805;Laerm;60920;48.748;19.142;2024-03-22T01:27:30;28.91;27.57;30.11;;
72805;Laerm;60920;48.748;19.142;2024-03-22T01:29:56;28.93;27.59;30.32;;
72805;Laerm;60920;48.748;19.142;2024-03-22T01:32:21;28.93;27.58;30.24;;
72805;Laerm;60920;48.748;19.142;2024-03-22T01:34:46;28.91;27.50;30.09;;
72805;Laerm;60920;48.748;19.142;2024-03-22T01:37:12;28.90;27.79;30.09;;
72805;Laerm;60920;48.748;19.142;2024-03-22T01:39:37;28.91;27.75;30.01;;
72805;Laerm;60920;48.748;19.142;2024-03-22T01:42:02;28.91;27.73;30.02;;
72805;Laerm;60920;48.748;19.142;2024-03-22T01:44:28;28.90;27.74;30.16;;
72805;Laerm;60920;48.748;19.142;2024-03-22T01:46:54;28.89;27.47;30.15;;
72805;Laerm;60920;48.748;19.142;2024-03-22T01:49:19;28.90;27.44;30.08;;
72805;Laerm;60920;48.748;19.142;2024-03-22T01:51:45;28.89;27.36;30.25;;
72805;Laerm;60920;48.748;19.142;2024-03-22T01:54:11;28.87;27.54;30.31;;
72805;Laerm;60920;48.748;19.142;2024-03-22T01:56:37;28.87;27.50;30.12;;
72805;Laerm;60920;48.748;19.142;2024-03-22T01:59:02;28.87;27.62;30.07;;
72805;Laerm;60920;48.748;19.142;2024-03-22T02:01:28;28.86;27.51;30.11;;
72805;Laerm;60920;48.748;19.142;2024-03-22T02:03:53;28.85;27.73;29.94;;
72805;Laerm;60920;48.748;19.142;2024-03-22T02:06:18;28.85;27.64;30.26;;
72805;Laerm;60920;48.748;19.142;2024-03-22T02:08:43;28.85;27.61;30.06;;
72805;Laerm;60920;48.748;19.142;2024-03-22T02:11:09;28.86;27.64;30.23;;
72805;Laerm;60920;48.748;19.142;2024-03-22T02:13:34;28.85;27.61;30.33;;
72805;Laerm;60920;48.748;19.142;2024-03-22T02:16:02;28.86;27.42;30.24;;
72805;Laerm;60920;48.748;19.142;2024-03-22T02:18:27;28.86;27.49;30.00;;
72805;Laerm;60920;48.748;19.142;2024-03-22T02:20:58;28.86;27.45;30.02;;
72805;Laerm;60920;48.748;19.142;2024-03-22T02:23:33;28.85;27.45;30.11;;
72805;Laerm;60920;48.748;19.142;2024-03-22T02:25:59;28.85;27.63;30.09;;
72805;Laerm;60920;48.748;19.142;2024-03-22T02:28:24;28.87;27.51;30.22;;
72805;Laerm;60920;48.748;19.142;2024-03-22T02:30:50;28.87;27.52;30.21;;
72805;Laerm;60920;48.748;19.142;2024-03-22T02:33:15;28.88;27.60;30.20;;
72805;Laerm;60920;48.748;19.142;2024-03-22T02:35:40;28.88;27.45;30.28;;
72805;Laerm;60920;48.748;19.142;2024-03-22T02:38:06;28.87;27.68;30.09;;
72805;Laerm;60920;48.748;19.142;2024-03-22T02:40:31;28.89;27.65;30.22;;
72805;Laerm;60920;48.748;19.142;2024-03-22T02:42:56;28.87;27.48;30.22;;
72805;Laerm;60920;48.748;19.142;2024-03-22T02:45:21;28.87;27.51;30.02;;
72805;Laerm;60920;48.748;19.142;2024-03-22T02:47:47;28.89;27.62;30.09;;
72805;Laerm;60920;48.748;19.142;2024-03-22T02:50:12;28.91;27.54;30.03;;
72805;Laerm;60920;48.748;19.142;2024-03-22T02:52:37;28.91;27.59;30.14;;
72805;Laerm;60920;48.748;19.142;2024-03-22T02:55:03;28.90;27.69;30.03;;
72805;Laerm;60920;48.748;19.142;2024-03-22T02:57:28;28.88;27.65;30.24;;
72805;Laerm;60920;48.748;19.142;2024-03-22T02:59:53;28.87;27.66;30.23;;
72805;Laerm;60920;48.748;19.142;2024-03-22T03:02:19;28.87;27.46;30.14;;
72805;Laerm;60920;48.748;19.142;2024-03-22T03:04:44;28.88;27.66;30.13;;
72805;Laerm;60920;48.748;19.142;2024-03-22T03:07:10;28.90;27.53;30.26;;
72805;Laerm;60920;48.748;19.142;2024-03-22T03:09:36;28.88;27.75;30.12;;
72805;Laerm;60920;48.748;19.142;2024-03-22T03:12:01;28.88;27.61;30.11;;
72805;Laerm;60920;48.748;19.142;2024-03-22T03:14:26;28.90;27.36;30.06;;
72805;Laerm;60920;48.748;19.142;2024-03-22T03:16:52;28.92;27.34;30.12;;
72805;Laerm;60920;48.748;19.142;2024-03-22T03:19:17;28.92;27.62;30.00;;
72805;Laerm;60920;48.748;19.142;2024-03-22T03:21:42;28.92;27.62;30.05;;
72805;Laerm;60920;48.748;19.142;2024-03-22T03:24:08;28.92;27.69;30.21;;
72805;Laerm;60920;48.748;19.142;2024-03-22T03:26:34;28.89;27.50;30.07;;
72805;Laerm;60920;48.748;19.142;2024-03-22T03:28:59;28.90;27.58;30.24;;
72805;Laerm;60920;48.748;19.142;2024-03-22T03:31:25;28.91;27.57;30.24;;
72805;Laerm;60920;48.748;19.142;2024-03-22T03:33:50;28.92;27.55;30.32;;
72805;Laerm;60920;48.748;19.142;2024-03-22T03:36:15;28.94;27.64;30.24;;
72805;Laerm;60920;48.748;19.142;2024-03-22T03:38:41;28.91;27.67;30.12;;
72805;Laerm;60920;48.748;19.142;2024-03-22T03:41:06;28.88;27.56;30.11;;
72805;Laerm;60920;48.748;19.142;2024-03-22T03:43:31;28.89;27.48;30.05;;
72805;Laerm;60920;48.748;19.142;2024-03-22T03:45:57;28.89;27.65;30.12;;
72805;Laerm;60920;48.748;19.142;2024-03-22T03:48:22;28.89;27.58;30.12;;
72805;Laerm;60920;48.748;19.142;2024-03-22T03:50:51;28.89;27.66;30.10;;
72805;Laerm;60920;48.748;19.142;2024-03-22T03:53:17;28.88;27.57;30.07;;
72805;Laerm;60920;48.748;19.142;2024-03-22T03:55:42;28.91;27.68;30.05;;
72805;Laerm;60920;48.748;19.142;2024-03-22T03:58:07;28.90;27.66;30.22;;
72805;Laerm;60920;48.748;19.142;2024-03-22T04:00:33;28.92;27.69;30.37;;
72805;Laerm;60920;48.748;19.142;2024-03-22T04:02:58;28.93;27.45;30.20;;
72805;Laerm;60920;48.748;19.142;2024-03-22T04:05:23;28.94;27.59;30.17;;
72805;Laerm;60920;48.748;19.142;2024-03-22T04:07:48;28.97;27.36;30.20;;
72805;Laerm;60920;48.748;19.142;2024-03-22T04:10:14;29.02;27.62;30.42;;
72805;Laerm;60920;48.748;19.142;2024-03-22T04:12:39;29.00;27.76;30.21;;
72805;Laerm;60920;48.748;19.142;2024-03-22T04:15:05;28.95;27.68;30.32;;
72805;Laerm;60920;48.748;19.142;2024-03-22T04:17:30;28.92;27.62;30.19;;
72805;Laerm;60920;48.748;19.142;2024-03-22T04:19:55;28.93;27.47;30.31;;
72805;Laerm;60920;48.748;19.142;2024-03-22T04:22:21;28.91;27.72;30.07;;
72805;Laerm;60920;48.748;19.142;2024-03-22T04:24:46;28.87;27.33;30.13;;
72805;Laerm;60920;48.748;19.142;2024-03-22T04:27:11;28.86;27.70;30.04;;
72805;Laerm;60920;48.748;19.142;2024-03-22T04:29:36;28.84;27.57;30.26;;
72805;Laerm;60920;48.748;19.142;2024-03-22T04:32:02;28.84;27.47;30.12;;
72805;Laerm;60920;48.748;19.142;2024-03-22T04:34:27;28.84;27.40;30.17;;
72805;Laerm;60920;48.748;19.142;2024-03-22T04:36:53;28.84;27.46;30.10;;
72805;Laerm;60920;48.748;19.142;2024-03-22T04:39:22;28.82;27.70;30.15;;
72805;Laerm;60920;48.748;19.142;2024-03-22T04:41:47;28.81;27.62;29.98;;
72805;Laerm;60920;48.748;19.142;2024-03-22T04:44:12;28.81;27.48;30.07;;
72805;Laerm;60920;48.748;19.142;2024-03-22T04:46:38;28.81;27.55;29.87;;
72805;Laerm;60920;48.748;19.142;2024-03-22T04:49:03;28.82;27.55;30.03;;
72805;Laerm;60920;48.748;19.142;2024-03-22T04:51:28;28.81;27.41;29.97;;
72805;Laerm;60920;48.748;19.142;2024-03-22T04:53:54;28.81;27.54;30.15;;
72805;Laerm;60920;48.748;19.142;2024-03-22T04:56:19;28.82;27.27;30.16;;
72805;Laerm;60920;48.748;19.142;2024-03-22T04:58:44;28.82;27.49;30.11;;
72805;Laerm;60920;48.748;19.142;2024-03-22T05:01:10;28.82;27.59;30.06;;
72805;Laerm;60920;48.748;19.142;2024-03-22T05:03:37;28.82;27.55;30.12;;
72805;Laerm;60920;48.748;19.142;2024-03-22T05:06:03;28.83;27.39;30.02;;
72805;Laerm;60920;48.748;19.142;2024-03-22T05:08:29;28.83;27.50;30.01;;
72805;Laerm;60920;48.748;19.142;2024-03-22T05:10:54;28.82;27.66;31.41;;
72805;Laerm;60920;48.748;19.142;2024-03-22T05:13:19;32.46;27.21;57.79;;
72805;Laerm;60920;48.748;19.142;2024-03-22T05:15:44;28.86;27.54;31.40;;
72805;Laerm;60920;48.748;19.142;2024-03-22T05:18:10;28.84;27.42;31.27;;
72805;Laerm;60920;48.748;19.142;2024-03-22T05:20:35;28.78;27.58;30.17;;
72805;Laerm;60920;48.748;19.142;2024-03-22T05:23:00;28.79;27.30;29.88;;
72805;Laerm;60920;48.748;19.142;2024-03-22T05:25:26;28.79;27.61;30.00;;
72805;Laerm;60920;48.748;19.142;2024-03-22T05:27:51;28.76;27.32;29.92;;
72805;Laerm;60920;48.748;19.142;2024-03-22T05:30:17;28.77;27.53;29.89;;
72805;Laerm;60920;48.748;19.142;2024-03-22T05:32:43;28.78;27.45;29.99;;
72805;Laerm;60920;48.748;19.142;2024-03-22T05:35:08;28.79;27.58;30.21;;
72805;Laerm;60920;48.748;19.142;2024-03-22T05:37:33;28.98;27.47;43.69;;
72805;Laerm;60920;48.748;19.142;2024-03-22T05:39:59;28.80;27.52;30.17;;
72805;Laerm;60920;48.748;19.142;2024-03-22T05:42:25;28.80;27.56;30.45;;
72805;Laerm;60920;48.748;19.142;2024-03-22T05:44:51;28.83;27.62;30.26;;
72805;Laerm;60920;48.748;19.142;2024-03-22T05:47:17;28.85;27.68;31.16;;
72805;Laerm;60920;48.748;19.142;2024-03-22T05:49:43;28.84;27.53;30.30;;
72805;Laerm;60920;48.748;19.142;2024-03-22T05:52:09;28.83;27.63;30.09;;
72805;Laerm;60920;48.748;19.142;2024-03-22T05:54:34;28.81;27.54;30.10;;
72805;Laerm;60920;48.748;19.142;2024-03-22T05:57:00;28.84;27.54;29.90;;
72805;Laerm;60920;48.748;19.142;2024-03-22T05:59:26;28.84;27.33;31.98;;
72805;Laerm;60920;48.748;19.142;2024-03-22T06:01:52;28.83;27.44;30.17;;
72805;Laerm;60920;48.748;19.142;2024-03-22T06:04:17;28.86;27.52;30.05;;
72805;Laerm;60920;48.748;19.142;2024-03-22T06:06:43;28.85;27.55;29.98;;
72805;Laerm;60920;48.748;19.142;2024-03-22T06:09:08;28.87;27.78;30.02;;
72805;Laerm;60920;48.748;19.142;2024-03-22T06:11:36;28.92;27.53;30.05;;
72805;Laerm;60920;48.748;19.142;2024-03-22T06:14:01;28.93;27.48;29.99;;
72805;Laerm;60920;48.748;19.142;2024-03-22T06:16:26;28.97;27.70;30.22;;
72805;Laerm;60920;48.748;19.142;2024-03-22T06:18:52;29.00;27.71;30.52;;
72805;Laerm;60920;48.748;19.142;2024-03-22T06:21:17;29.01;27.69;30.34;;
72805;Laerm;60920;48.748;19.142;2024-03-22T06:23:50;29.07;27.82;30.35;;
72805;Laerm;60920;48.748;19.142;2024-03-22T06:26:15;29.07;27.83;30.24;;
72805;Laerm;60920;48.748;19.142;2024-03-22T06:28:41;29.15;28.05;30.43;;
72805;Laerm;60920;48.748;19.142;2024-03-22T06:31:06;29.20;27.96;30.37;;
72805;Laerm;60920;48.748;19.142;2024-03-22T06:33:31;29.30;27.95;30.41;;
72805;Laerm;60920;48.748;19.142;2024-03-22T06:35:57;29.49;28.14;31.26;;
72805;Laerm;60920;48.748;19.142;2024-03-22T06:38:22;30.17;28.24;48.88;;
72805;Laerm;60920;48.748;19.142;2024-03-22T06:40:47;29.65;28.26;32.79;;
72805;Laerm;60920;48.748;19.142;2024-03-22T06:43:12;29.63;28.37;30.96;;
72805;Laerm;60920;48.748;19.142;2024-03-22T06:45:38;29.73;28.48;41.24;;
72805;Laerm;60920;48.748;19.142;2024-03-22T06:48:03;29.76;28.20;30.89;;
72805;Laerm;60920;48.748;19.142;2024-03-22T06:50:28;29.82;28.45;33.84;;
72805;Laerm;60920;48.748;19.142;2024-03-22T06:52:54;29.67;28.39;32.32;;
72805;Laerm;60920;48.748;19.142;2024-03-22T06:55:19;29.76;28.42;31.10;;
72805;Laerm;60920;48.748;19.142;2024-03-22T06:57:46;30.26;28.63;47.41;;
72805;Laerm;60920;48.748;19.142;2024-03-22T07:00:12;31.52;28.80;51.51;;
72805;Laerm;60920;48.748;19.142;2024-03-22T07:02:38;29.87;28.47;31.02;;
72805;Laerm;60920;48.748;19.142;2024-03-22T07:05:03;30.12;28.60;31.50;;
72805;Laerm;60920;48.748;19.142;2024-03-22T07:07:29;30.45;29.23;31.71;;
72805;Laerm;60920;48.748;19.142;2024-03-22T07:09:54;30.50;29.01;31.78;;
72805;Laerm;60920;48.748;19.142;2024-03-22T07:12:19;30.47;29.39;32.11;;
72805;Laerm;60920;48.748;19.142;2024-03-22T07:14:44;30.54;28.92;31.82;;
72805;Laerm;60920;48.748;19.142;2024-03-22T07:17:10;30.53;29.25;31.87;;
72805;Laerm;60920;48.748;19.142;2024-03-22T07:19:35;30.79;29.19;32.16;;
72805;Laerm;60920;48.748;19.142;2024-03-22T07:22:01;31.01;29.65;32.23;;
72805;Laerm;60920;48.748;19.142;2024-03-22T07:24:26;31.24;29.73;44.40;;
72805;Laerm;60920;48.748;19.142;2024-03-22T07:26:52;31.27;29.85;46.87;;
72805;Laerm;60920;48.748;19.142;2024-03-22T07:29:17;31.09;29.84;32.21;;
72805;Laerm;60920;48.748;19.142;2024-03-22T07:31:42;31.11;29.83;32.46;;
72805;Laerm;60920;48.748;19.142;2024-03-22T07:34:08;31.14;29.55;32.58;;
72805;Laerm;60920;48.748;19.142;2024-03-22T07:36:37;31.13;29.84;32.24;;
72805;Laerm;60920;48.748;19.142;2024-03-22T07:39:02;31.08;29.61;32.24;;
72805;Laerm;60920;48.748;19.142;2024-03-22T07:41:28;31.06;29.72;32.22;;
72805;Laerm;60920;48.748;19.142;2024-03-22T07:43:54;31.14;29.81;32.34;;
72805;Laerm;60920;48.748;19.142;2024-03-22T07:46:19;31.16;29.92;32.27;;
72805;Laerm;60920;48.748;19.142;2024-03-22T07:48:44;31.11;29.55;32.96;;
72805;Laerm;60920;48.748;19.142;2024-03-22T07:51:09;31.10;29.80;32.53;;
72805;Laerm;60920;48.748;19.142;2024-03-22T07:53:35;30.97;29.72;32.37;;
72805;Laerm;60920;48.748;19.142;2024-03-22T07:56:00;30.91;29.50;32.18;;
72805;Laerm;60920;48.748;19.142;2024-03-22T07:58:25;30.73;29.21;31.95;;
72805;Laerm;60920;48.748;19.142;2024-03-22T08:00:51;30.65;29.20;31.76;;
72805;Laerm;60920;48.748;19.142;2024-03-22T08:03:16;30.68;29.22;31.90;;
72805;Laerm;60920;48.748;19.142;2024-03-22T08:05:41;30.73;29.32;32.72;;
72805;Laerm;60920;48.748;19.142;2024-03-22T08:08:07;30.69;29.26;31.96;;
72805;Laerm;60920;48.748;19.142;2024-03-22T08:10:32;30.87;29.37;47.67;;
72805;Laerm;60920;48.748;19.142;2024-03-22T08:12:57;30.69;29.02;41.52;;
72805;Laerm;60920;48.748;19.142;2024-03-22T08:15:23;30.57;29.31;31.79;;
72805;Laerm;60920;48.748;19.142;2024-03-22T08:17:48;30.43;29.06;36.76;;
72805;Laerm;60920;48.748;19.142;2024-03-22T08:20:13;30.51;29.21;39.31;;
72805;Laerm;60920;48.748;19.142;2024-03-22T08:22:38;30.42;29.19;31.98;;
72805;Laerm;60920;48.748;19.142;2024-03-22T08:25:04;30.18;28.74;31.68;;
72805;Laerm;60920;48.748;19.142;2024-03-22T08:27:32;30.19;28.70;31.54;;
72805;Laerm;60920;48.748;19.142;2024-03-22T08:29:57;30.10;28.52;31.30;;
72805;Laerm;60920;48.748;19.142;2024-03-22T08:32:23;30.10;28.81;32.10;;
72805;Laerm;60920;48.748;19.142;2024-03-22T08:34:48;30.23;28.94;31.76;;
72805;Laerm;60920;48.748;19.142;2024-03-22T08:37:13;30.39;28.57;31.64;;
72805;Laerm;60920;48.748;19.142;2024-03-22T08:39:38;30.33;28.90;31.69;;
72805;Laerm;60920;48.748;19.142;2024-03-22T08:42:04;30.24;28.83;31.78;;
72805;Laerm;60920;48.748;19.142;2024-03-22T08:44:31;30.21;28.84;31.49;;
72805;Laerm;60920;48.748;19.142;2024-03-22T08:46:56;30.16;28.50;31.44;;
72805;Laerm;60920;48.748;19.142;2024-03-22T08:49:21;30.04;28.67;31.59;;
72805;Laerm;60920;48.748;19.142;2024-03-22T08:51:48;29.95;28.51;31.27;;
72805;Laerm;60920;48.748;19.142;2024-03-22T08:54:13;29.79;28.48;31.00;;
72805;Laerm;60920;48.748;19.142;2024-03-22T08:56:39;29.84;28.20;31.25;;
72805;Laerm;60920;48.748;19.142;2024-03-22T08:59:05;30.03;28.54;31.40;;
72805;Laerm;60920;48.748;19.142;2024-03-22T09:01:30;30.20;28.43;31.52;;
72805;Laerm;60920;48.748;19.142;2024-03-22T09:03:56;30.28;29.01;31.61;;
72805;Laerm;60920;48.748;19.142;2024-03-22T09:06:21;30.23;28.84;31.38;;
72805;Laerm;60920;48.748;19.142;2024-03-22T09:08:46;30.32;28.91;34.18;;
72805;Laerm;60920;48.748;19.142;2024-03-22T09:11:12;30.28;28.73;32.51;;
72805;Laerm;60920;48.748;19.142;2024-03-22T09:13:37;30.36;28.86;31.82;;
72805;Laerm;60920;48.748;19.142;2024-03-22T09:16:03;30.68;29.11;40.63;;
72805;Laerm;60920;48.748;19.142;2024-03-22T09:18:28;30.59;29.21;32.06;;
72805;Laerm;60920;48.748;19.142;2024-03-22T09:20:54;30.65;29.27;33.95;;
72805;Laerm;60920;48.748;19.142;2024-03-22T09:23:19;30.72;29.23;32.02;;
72805;Laerm;60920;48.748;19.142;2024-03-22T09:25:45;30.75;29.40;32.39;;
72805;Laerm;60920;48.748;19.142;2024-03-22T09:28:11;30.49;28.98;31.91;;
72805;Laerm;60920;48.748;19.142;2024-03-22T09:30:39;30.55;28.84;32.08;;
72805;Laerm;60920;48.748;19.142;2024-03-22T09:33:08;30.16;28.65;31.66;;
72805;Laerm;60920;48.748;19.142;2024-03-22T09:35:34;29.86;28.52;31.25;;
72805;Laerm;60920;48.748;19.142;2024-03-22T09:37:59;31.12;28.08;52.14;;
72805;Laerm;60920;48.748;19.142;2024-03-22T09:40:25;29.60;28.12;31.18;;
72805;Laerm;60920;48.748;19.142;2024-03-22T09:42:50;29.60;28.14;32.00;;
72805;Laerm;60920;48.748;19.142;2024-03-22T09:45:17;29.65;28.12;31.94;;
72805;Laerm;60920;48.748;19.142;2024-03-22T09:47:45;29.76;28.36;31.11;;
72805;Laerm;60920;48.748;19.142;2024-03-22T09:50:10;29.74;28.13;32.04;;
72805;Laerm;60920;48.748;19.142;2024-03-22T09:52:37;29.89;28.61;31.26;;
72805;Laerm;60920;48.748;19.142;2024-03-22T09:55:03;30.05;28.65;31.54;;
72805;Laerm;60920;48.748;19.142;2024-03-22T09:57:29;29.48;27.97;30.81;;
72805;Laerm;60920;48.748;19.142;2024-03-22T09:59:55;29.22;27.48;30.71;;
72805;Laerm;60920;48.748;19.142;2024-03-22T10:02:21;28.98;27.66;30.23;;
72805;Laerm;60920;48.748;19.142;2024-03-22T10:04:48;28.90;27.43;33.95;;
72805;Laerm;60920;48.748;19.142;2024-03-22T10:07:15;28.86;27.46;30.01;;
72805;Laerm;60920;48.748;19.142;2024-03-22T10:09:40;28.84;27.50;31.40;;
72805;Laerm;60920;48.748;19.142;2024-03-22T10:12:06;28.87;27.49;30.32;;
72805;Laerm;60920;48.748;19.142;2024-03-22T10:14:31;28.84;27.55;30.71;;
72805;Laerm;60920;48.748;19.142;2024-03-22T10:16:58;28.80;27.41;30.13;;
72805;Laerm;60920;48.748;19.142;2024-03-22T10:19:23;28.91;27.36;32.05;;
72805;Laerm;60920;48.748;19.142;2024-03-22T10:24:26;28.48;26.93;29.86;;
72805;Laerm;60920;48.748;19.142;2024-03-22T10:26:52;28.41;26.80;30.56;;
72805;Laerm;60920;48.748;19.142;2024-03-22T10:29:17;28.33;26.92;29.69;;
72805;Laerm;60920;48.748;19.142;2024-03-22T10:31:43;28.45;27.14;30.05;;
72805;Laerm;60920;48.748;19.142;2024-03-22T10:34:09;28.40;26.92;31.10;;
72805;Laerm;60920;48.748;19.142;2024-03-22T10:36:34;28.31;26.73;30.98;;
72805;Laerm;60920;48.748;19.142;2024-03-22T10:38:59;28.34;26.70;33.00;;
72805;Laerm;60920;48.748;19.142;2024-03-22T10:41:25;28.18;26.95;29.41;;
72805;Laerm;60920;48.748;19.142;2024-03-22T10:43:51;28.16;26.70;29.44;;
72805;Laerm;60920;48.748;19.142;2024-03-22T10:46:16;28.20;26.90;30.68;;
72805;Laerm;60920;48.748;19.142;2024-03-22T10:48:44;28.30;27.10;29.99;;
72805;Laerm;60920;48.748;19.142;2024-03-22T10:51:10;28.28;26.85;29.46;;
72805;Laerm;60920;48.748;19.142;2024-03-22T10:53:35;28.32;26.94;30.03;;
72805;Laerm;60920;48.748;19.142;2024-03-22T10:56:01;28.65;27.12;41.59;;
72805;Laerm;60920;48.748;19.142;2024-03-22T10:58:28;28.36;27.00;29.66;;
72805;Laerm;60920;48.748;19.142;2024-03-22T11:00:54;28.43;27.03;29.58;;
72805;Laerm;60920;48.748;19.142;2024-03-22T11:03:25;28.52;27.18;32.47;;
72805;Laerm;60920;48.748;19.142;2024-03-22T11:05:54;28.41;26.73;29.60;;
72805;Laerm;60920;48.748;19.142;2024-03-22T11:08:24;28.99;27.02;41.46;;
72805;Laerm;60920;48.748;19.142;2024-03-22T11:10:50;28.80;27.00;40.51;;
72805;Laerm;60920;48.748;19.142;2024-03-22T11:13:16;28.41;26.91;31.25;;
72805;Laerm;60920;48.748;19.142;2024-03-22T11:15:42;28.42;27.00;30.35;;
72805;Laerm;60920;48.748;19.142;2024-03-22T11:18:07;28.33;26.73;29.86;;
72805;Laerm;60920;48.748;19.142;2024-03-22T11:20:35;28.24;26.79;31.81;;
72805;Laerm;60920;48.748;19.142;2024-03-22T11:23:01;28.18;26.93;31.45;;
72805;Laerm;60920;48.748;19.142;2024-03-22T11:25:26;28.16;26.81;30.22;;
72805;Laerm;60920;48.748;19.142;2024-03-22T11:27:51;28.23;26.67;30.05;;
72805;Laerm;60920;48.748;19.142;2024-03-22T11:30:17;28.06;26.73;29.55;;
72805;Laerm;60920;48.748;19.142;2024-03-22T11:32:43;28.08;26.82;29.50;;
72805;Laerm;60920;48.748;19.142;2024-03-22T11:35:11;28.00;26.58;29.33;;
72805;Laerm;60920;48.748;19.142;2024-03-22T11:37:40;28.15;26.61;42.86;;
72805;Laerm;60920;48.748;19.142;2024-03-22T11:40:06;27.84;26.56;29.11;;
72805;Laerm;60920;48.748;19.142;2024-03-22T11:42:34;27.81;26.51;29.43;;
72805;Laerm;60920;48.748;19.142;2024-03-22T11:45:00;27.96;26.54;29.82;;
72805;Laerm;60920;48.748;19.142;2024-03-22T11:47:26;27.96;26.62;31.69;;
72805;Laerm;60920;48.748;19.142;2024-03-22T11:49:52;27.89;26.64;29.21;;
72805;Laerm;60920;48.748;19.142;2024-03-22T11:52:17;27.93;26.76;29.42;;
72805;Laerm;60920;48.748;19.142;2024-03-22T11:54:42;28.22;26.47;43.87;;
72805;Laerm;60920;48.748;19.142;2024-03-22T11:57:11;27.81;26.33;30.32;;
72805;Laerm;60920;48.748;19.142;2024-03-22T11:59:36;27.85;26.40;33.17;;
72805;Laerm;60920;48.748;19.142;2024-03-22T12:02:01;27.80;26.53;31.34;;
72805;Laerm;60920;48.748;19.142;2024-03-22T12:04:27;27.80;26.45;29.22;;
72805;Laerm;60920;48.748;19.142;2024-03-22T12:06:52;27.75;26.06;29.85;;
72805;Laerm;60920;48.748;19.142;2024-03-22T12:09:18;27.78;26.53;29.74;;
72805;Laerm;60920;48.748;19.142;2024-03-22T12:11:43;27.76;26.25;29.16;;
72805;Laerm;60920;48.748;19.142;2024-03-22T12:14:09;27.69;26.17;28.89;;
72805;Laerm;60920;48.748;19.142;2024-03-22T12:16:34;27.74;26.39;30.20;;
72805;Laerm;60920;48.748;19.142;2024-03-22T12:18:59;27.81;26.46;29.50;;
72805;Laerm;60920;48.748;19.142;2024-03-22T12:21:24;27.68;26.43;29.29;;
72805;Laerm;60920;48.748;19.142;2024-03-22T12:23:50;27.85;26.40;37.70;;
72805;Laerm;60920;48.748;19.142;2024-03-22T12:26:15;27.72;26.01;28.94;;
72805;Laerm;60920;48.748;19.142;2024-03-22T12:28:40;27.71;26.50;28.91;;
72805;Laerm;60920;48.748;19.142;2024-03-22T12:31:07;27.75;26.22;29.21;;
72805;Laerm;60920;48.748;19.142;2024-03-22T12:33:33;27.85;26.40;33.40;;
72805;Laerm;60920;48.748;19.142;2024-03-22T12:35:58;27.87;26.30;38.01;;
72805;Laerm;60920;48.748;19.142;2024-03-22T12:38:23;27.85;26.55;31.46;;
72805;Laerm;60920;48.748;19.142;2024-03-22T12:40:49;27.67;26.24;29.57;;
72805;Laerm;60920;48.748;19.142;2024-03-22T12:43:15;27.87;26.20;37.05;;
72805;Laerm;60920;48.748;19.142;2024-03-22T12:45:40;27.72;26.44;29.39;;
72805;Laerm;60920;48.748;19.142;2024-03-22T12:48:05;27.76;26.46;30.02;;
72805;Laerm;60920;48.748;19.142;2024-03-22T12:50:31;27.78;26.47;29.78;;
72805;Laerm;60920;48.748;19.142;2024-03-22T12:52:56;27.73;26.47;29.98;;
72805;Laerm;60920;48.748;19.142;2024-03-22T12:55:21;27.79;26.29;29.98;;
72805;Laerm;60920;48.748;19.142;2024-03-22T12:57:47;27.65;26.27;29.00;;
72805;Laerm;60920;48.748;19.142;2024-03-22T13:00:12;27.76;26.41;29.75;;
72805;Laerm;60920;48.748;19.142;2024-03-22T13:02:39;27.86;26.30;31.66;;
72805;Laerm;60920;48.748;19.142;2024-03-22T13:05:04;27.78;26.29;29.29;;
72805;Laerm;60920;48.748;19.142;2024-03-22T13:07:29;27.76;26.20;29.54;;
72805;Laerm;60920;48.748;19.142;2024-03-22T13:09:55;27.83;26.52;29.37;;
72805;Laerm;60920;48.748;19.142;2024-03-22T13:12:20;27.80;26.37;29.23;;
72805;Laerm;60920;48.748;19.142;2024-03-22T13:14:45;27.83;26.36;29.87;;
72805;Laerm;60920;48.748;19.142;2024-03-22T13:17:11;27.85;26.41;29.31;;
72805;Laerm;60920;48.748;19.142;2024-03-22T13:19:37;28.08;26.26;42.32;;
72805;Laerm;60920;48.748;19.142;2024-03-22T13:22:03;27.96;26.61;30.23;;
72805;Laerm;60920;48.748;19.142;2024-03-22T13:24:29;28.02;26.54;40.39;;